sensor_id;sensor_type;location;lat;lon;timestamp;P1;durP1;ratioP1;P2;durP2;ratioP2
10248;SDS011;5169;50.560;9.714;2022-07-05T00:00:41;2.57;;;1.30;;
10248;SDS011;5169;50.560;9.714;2022-07-05T00:03:07;3.70;;;1.20;;
10248;SDS011;5169;50.560;9.714;2022-07-05T00:05:33;1.47;;;1.27;;
10248;SDS011;5169;50.560;9.714;2022-07-05T00:07:59;1.87;;;1.47;;
10248;SDS011;5169;50.560;9.714;2022-07-05T00:10:25;4.37;;;1.53;;
10248;SDS011;5169;50.560;9.714;2022-07-05T00:12:51;2.73;;;1.27;;
10248;SDS011;5169;50.560;9.714;2022-07-05T00:15:17;2.60;;;1.30;;
10248;SDS011;5169;50.560;9.714;2022-07-05T00:17:43;3.87;;;1.50;;
10248;SDS011;5169;50.560;9.714;2022-07-05T00:20:09;5.20;;;1.80;;
10248;SDS011;5169;50.560;9.714;2022-07-05T00:22:35;2.27;;;1.77;;
10248;SDS011;5169;50.560;9.714;2022-07-05T00:25:01;3.67;;;2.07;;
10248;SDS011;5169;50.560;9.714;2022-07-05T00:27:26;4.20;;;1.90;;
10248;SDS011;5169;50.560;9.714;2022-07-05T00:29:52;5.37;;;1.90;;
10248;SDS011;5169;50.560;9.714;2022-07-05T00:32:18;2.13;;;1.60;;
10248;SDS011;5169;50.560;9.714;2022-07-05T00:34:48;4.23;;;1.73;;
10248;SDS011;5169;50.560;9.714;2022-07-05T00:37:14;3.13;;;1.70;;
10248;SDS011;5169;50.560;9.714;2022-07-05T00:39:41;3.57;;;1.80;;
10248;SDS011;5169;50.560;9.714;2022-07-05T00:42:07;3.93;;;1.47;;
10248;SDS011;5169;50.560;9.714;2022-07-05T00:44:35;3.00;;;1.37;;
10248;SDS011;5169;50.560;9.714;2022-07-05T00:47:02;2.43;;;1.50;;
10248;SDS011;5169;50.560;9.714;2022-07-05T00:49:32;2.27;;;1.70;;
10248;SDS011;5169;50.560;9.714;2022-07-05T00:51:59;4.17;;;1.57;;
10248;SDS011;5169;50.560;9.714;2022-07-05T00:54:26;2.83;;;1.43;;
10248;SDS011;5169;50.560;9.714;2022-07-05T00:56:52;5.97;;;1.53;;
10248;SDS011;5169;50.560;9.714;2022-07-05T00:59:19;2.20;;;1.30;;
10248;SDS011;5169;50.560;9.714;2022-07-05T01:01:47;4.90;;;1.67;;
10248;SDS011;5169;50.560;9.714;2022-07-05T01:04:16;3.63;;;1.57;;
10248;SDS011;5169;50.560;9.714;2022-07-05T01:06:43;1.77;;;1.57;;
10248;SDS011;5169;50.560;9.714;2022-07-05T01:09:12;2.20;;;1.70;;
10248;SDS011;5169;50.560;9.714;2022-07-05T01:11:41;5.47;;;1.80;;
10248;SDS011;5169;50.560;9.714;2022-07-05T01:14:08;2.77;;;1.80;;
10248;SDS011;5169;50.560;9.714;2022-07-05T01:16:38;1.87;;;1.63;;
10248;SDS011;5169;50.560;9.714;2022-07-05T01:19:06;2.43;;;1.73;;
10248;SDS011;5169;50.560;9.714;2022-07-05T01:21:41;4.80;;;1.60;;
10248;SDS011;5169;50.560;9.714;2022-07-05T01:24:12;2.13;;;1.90;;
10248;SDS011;5169;50.560;9.714;2022-07-05T01:26:43;2.43;;;1.70;;
10248;SDS011;5169;50.560;9.714;2022-07-05T01:29:15;2.87;;;1.97;;
10248;SDS011;5169;50.560;9.714;2022-07-05T01:31:41;2.83;;;2.10;;
10248;SDS011;5169;50.560;9.714;2022-07-05T01:34:07;3.17;;;1.97;;
10248;SDS011;5169;50.560;9.714;2022-07-05T01:36:36;4.97;;;1.87;;
10248;SDS011;5169;50.560;9.714;2022-07-05T01:39:03;1.80;;;1.70;;
10248;SDS011;5169;50.560;9.714;2022-07-05T01:41:30;2.03;;;1.73;;
10248;SDS011;5169;50.560;9.714;2022-07-05T01:43:56;2.00;;;1.80;;
10248;SDS011;5169;50.560;9.714;2022-07-05T01:46:22;2.13;;;1.70;;
10248;SDS011;5169;50.560;9.714;2022-07-05T01:48:53;5.33;;;2.30;;
10248;SDS011;5169;50.560;9.714;2022-07-05T01:51:25;3.70;;;2.20;;
10248;SDS011;5169;50.560;9.714;2022-07-05T01:53:56;2.37;;;1.80;;
10248;SDS011;5169;50.560;9.714;2022-07-05T01:56:22;3.10;;;1.90;;
10248;SDS011;5169;50.560;9.714;2022-07-05T01:58:47;3.37;;;2.37;;
10248;SDS011;5169;50.560;9.714;2022-07-05T02:01:25;2.53;;;2.13;;
10248;SDS011;5169;50.560;9.714;2022-07-05T02:04:04;3.40;;;2.07;;
10248;SDS011;5169;50.560;9.714;2022-07-05T02:06:36;2.93;;;1.97;;
10248;SDS011;5169;50.560;9.714;2022-07-05T02:09:03;3.03;;;2.20;;
10248;SDS011;5169;50.560;9.714;2022-07-05T02:11:33;2.07;;;1.87;;
10248;SDS011;5169;50.560;9.714;2022-07-05T02:14:01;5.07;;;1.97;;
10248;SDS011;5169;50.560;9.714;2022-07-05T02:16:30;3.00;;;2.27;;
10248;SDS011;5169;50.560;9.714;2022-07-05T02:18:56;2.83;;;2.30;;
10248;SDS011;5169;50.560;9.714;2022-07-05T02:21:22;5.97;;;3.20;;
10248;SDS011;5169;50.560;9.714;2022-07-05T02:23:50;4.97;;;3.50;;
10248;SDS011;5169;50.560;9.714;2022-07-05T02:26:16;4.97;;;3.20;;
10248;SDS011;5169;50.560;9.714;2022-07-05T02:28:42;4.20;;;2.83;;
10248;SDS011;5169;50.560;9.714;2022-07-05T02:31:08;4.80;;;3.17;;
10248;SDS011;5169;50.560;9.714;2022-07-05T02:33:33;5.83;;;3.50;;
10248;SDS011;5169;50.560;9.714;2022-07-05T02:36:09;3.23;;;2.90;;
10248;SDS011;5169;50.560;9.714;2022-07-05T02:38:36;5.80;;;3.43;;
10248;SDS011;5169;50.560;9.714;2022-07-05T02:41:05;5.60;;;2.60;;
10248;SDS011;5169;50.560;9.714;2022-07-05T02:43:36;4.97;;;2.30;;
10248;SDS011;5169;50.560;9.714;2022-07-05T02:46:05;3.90;;;2.33;;
10248;SDS011;5169;50.560;9.714;2022-07-05T02:48:33;2.27;;;1.70;;
10248;SDS011;5169;50.560;9.714;2022-07-05T02:51:00;3.17;;;1.80;;
10248;SDS011;5169;50.560;9.714;2022-07-05T02:53:26;2.33;;;1.90;;
10248;SDS011;5169;50.560;9.714;2022-07-05T02:55:52;2.20;;;1.80;;
10248;SDS011;5169;50.560;9.714;2022-07-05T02:58:17;3.47;;;1.87;;
10248;SDS011;5169;50.560;9.714;2022-07-05T03:00:46;3.00;;;1.73;;
10248;SDS011;5169;50.560;9.714;2022-07-05T03:03:12;1.57;;;1.47;;
10248;SDS011;5169;50.560;9.714;2022-07-05T03:05:39;1.90;;;1.40;;
10248;SDS011;5169;50.560;9.714;2022-07-05T03:08:04;1.83;;;1.60;;
10248;SDS011;5169;50.560;9.714;2022-07-05T03:10:34;2.33;;;1.43;;
10248;SDS011;5169;50.560;9.714;2022-07-05T03:13:01;2.37;;;1.70;;
10248;SDS011;5169;50.560;9.714;2022-07-05T03:15:29;1.70;;;1.60;;
10248;SDS011;5169;50.560;9.714;2022-07-05T03:17:55;5.37;;;1.90;;
10248;SDS011;5169;50.560;9.714;2022-07-05T03:20:20;1.70;;;1.50;;
10248;SDS011;5169;50.560;9.714;2022-07-05T03:22:46;2.60;;;1.90;;
10248;SDS011;5169;50.560;9.714;2022-07-05T03:25:12;2.27;;;1.70;;
10248;SDS011;5169;50.560;9.714;2022-07-05T03:27:37;4.70;;;1.93;;
10248;SDS011;5169;50.560;9.714;2022-07-05T03:30:05;2.73;;;1.87;;
10248;SDS011;5169;50.560;9.714;2022-07-05T03:32:34;1.90;;;1.70;;
10248;SDS011;5169;50.560;9.714;2022-07-05T03:35:02;1.83;;;1.60;;
10248;SDS011;5169;50.560;9.714;2022-07-05T03:37:31;4.83;;;2.00;;
10248;SDS011;5169;50.560;9.714;2022-07-05T03:39:56;2.37;;;1.70;;
10248;SDS011;5169;50.560;9.714;2022-07-05T03:42:22;1.87;;;1.77;;
10248;SDS011;5169;50.560;9.714;2022-07-05T03:44:50;4.47;;;1.90;;
10248;SDS011;5169;50.560;9.714;2022-07-05T03:47:19;2.30;;;1.70;;
10248;SDS011;5169;50.560;9.714;2022-07-05T03:49:45;1.83;;;1.73;;
10248;SDS011;5169;50.560;9.714;2022-07-05T03:52:13;1.70;;;1.60;;
10248;SDS011;5169;50.560;9.714;2022-07-05T03:54:41;2.20;;;1.67;;
10248;SDS011;5169;50.560;9.714;2022-07-05T03:57:09;2.40;;;1.50;;
10248;SDS011;5169;50.560;9.714;2022-07-05T03:59:38;1.60;;;1.50;;
10248;SDS011;5169;50.560;9.714;2022-07-05T04:02:04;2.93;;;1.80;;
10248;SDS011;5169;50.560;9.714;2022-07-05T04:04:30;2.70;;;1.80;;
10248;SDS011;5169;50.560;9.714;2022-07-05T04:06:56;1.90;;;1.80;;
10248;SDS011;5169;50.560;9.714;2022-07-05T04:09:21;2.23;;;1.50;;
10248;SDS011;5169;50.560;9.714;2022-07-05T04:11:47;3.00;;;1.73;;
10248;SDS011;5169;50.560;9.714;2022-07-05T04:14:13;2.57;;;1.57;;
10248;SDS011;5169;50.560;9.714;2022-07-05T04:16:38;2.37;;;1.50;;
10248;SDS011;5169;50.560;9.714;2022-07-05T04:19:06;3.80;;;1.70;;
10248;SDS011;5169;50.560;9.714;2022-07-05T04:21:32;2.73;;;1.80;;
10248;SDS011;5169;50.560;9.714;2022-07-05T04:23:58;3.30;;;1.97;;
10248;SDS011;5169;50.560;9.714;2022-07-05T04:26:23;4.37;;;1.97;;
10248;SDS011;5169;50.560;9.714;2022-07-05T04:28:49;2.30;;;2.10;;
10248;SDS011;5169;50.560;9.714;2022-07-05T04:31:15;1.83;;;1.70;;
10248;SDS011;5169;50.560;9.714;2022-07-05T04:33:40;2.00;;;1.80;;
10248;SDS011;5169;50.560;9.714;2022-07-05T04:36:06;2.43;;;2.00;;
10248;SDS011;5169;50.560;9.714;2022-07-05T04:38:32;5.13;;;2.10;;
10248;SDS011;5169;50.560;9.714;2022-07-05T04:40:57;2.30;;;2.00;;
10248;SDS011;5169;50.560;9.714;2022-07-05T04:43:23;3.93;;;2.60;;
10248;SDS011;5169;50.560;9.714;2022-07-05T04:45:49;5.30;;;3.07;;
10248;SDS011;5169;50.560;9.714;2022-07-05T04:48:17;5.87;;;3.33;;
10248;SDS011;5169;50.560;9.714;2022-07-05T04:50:42;4.23;;;3.20;;
10248;SDS011;5169;50.560;9.714;2022-07-05T04:53:10;3.70;;;2.97;;
10248;SDS011;5169;50.560;9.714;2022-07-05T04:55:36;3.73;;;3.27;;
10248;SDS011;5169;50.560;9.714;2022-07-05T04:58:04;5.33;;;3.20;;
10248;SDS011;5169;50.560;9.714;2022-07-05T05:00:29;4.70;;;3.13;;
10248;SDS011;5169;50.560;9.714;2022-07-05T05:02:55;6.30;;;3.27;;
10248;SDS011;5169;50.560;9.714;2022-07-05T05:05:21;3.53;;;3.20;;
10248;SDS011;5169;50.560;9.714;2022-07-05T05:07:46;3.27;;;2.97;;
10248;SDS011;5169;50.560;9.714;2022-07-05T05:10:12;5.80;;;3.10;;
10248;SDS011;5169;50.560;9.714;2022-07-05T05:12:40;4.40;;;3.03;;
10248;SDS011;5169;50.560;9.714;2022-07-05T05:15:06;4.33;;;3.20;;
10248;SDS011;5169;50.560;9.714;2022-07-05T05:17:39;6.93;;;3.47;;
10248;SDS011;5169;50.560;9.714;2022-07-05T05:20:12;5.97;;;3.63;;
10248;SDS011;5169;50.560;9.714;2022-07-05T05:22:42;3.37;;;3.00;;
10248;SDS011;5169;50.560;9.714;2022-07-05T05:25:09;7.97;;;3.90;;
10248;SDS011;5169;50.560;9.714;2022-07-05T05:27:46;6.10;;;3.00;;
10248;SDS011;5169;50.560;9.714;2022-07-05T05:30:16;6.00;;;3.03;;
10248;SDS011;5169;50.560;9.714;2022-07-05T05:32:45;4.27;;;3.40;;
10248;SDS011;5169;50.560;9.714;2022-07-05T05:35:14;5.00;;;3.10;;
10248;SDS011;5169;50.560;9.714;2022-07-05T05:37:45;5.37;;;3.03;;
10248;SDS011;5169;50.560;9.714;2022-07-05T05:40:13;4.67;;;2.70;;
10248;SDS011;5169;50.560;9.714;2022-07-05T05:42:39;6.47;;;3.20;;
10248;SDS011;5169;50.560;9.714;2022-07-05T05:45:05;4.97;;;2.90;;
10248;SDS011;5169;50.560;9.714;2022-07-05T05:47:31;6.67;;;3.20;;
10248;SDS011;5169;50.560;9.714;2022-07-05T05:49:57;4.97;;;3.47;;
10248;SDS011;5169;50.560;9.714;2022-07-05T05:52:22;4.37;;;3.17;;
10248;SDS011;5169;50.560;9.714;2022-07-05T05:54:48;3.33;;;2.87;;
10248;SDS011;5169;50.560;9.714;2022-07-05T05:57:16;4.63;;;2.93;;
10248;SDS011;5169;50.560;9.714;2022-07-05T05:59:42;4.97;;;3.50;;
10248;SDS011;5169;50.560;9.714;2022-07-05T06:02:07;4.07;;;2.67;;
10248;SDS011;5169;50.560;9.714;2022-07-05T06:04:33;5.90;;;2.63;;
10248;SDS011;5169;50.560;9.714;2022-07-05T06:07:03;3.93;;;2.53;;
10248;SDS011;5169;50.560;9.714;2022-07-05T06:09:31;3.53;;;2.23;;
10248;SDS011;5169;50.560;9.714;2022-07-05T06:11:57;5.43;;;2.37;;
10248;SDS011;5169;50.560;9.714;2022-07-05T06:14:23;3.30;;;2.17;;
10248;SDS011;5169;50.560;9.714;2022-07-05T06:16:48;4.03;;;2.07;;
10248;SDS011;5169;50.560;9.714;2022-07-05T06:19:16;3.77;;;2.30;;
10248;SDS011;5169;50.560;9.714;2022-07-05T06:21:42;3.20;;;2.30;;
10248;SDS011;5169;50.560;9.714;2022-07-05T06:24:10;3.63;;;2.23;;
10248;SDS011;5169;50.560;9.714;2022-07-05T06:26:35;5.13;;;1.90;;
10248;SDS011;5169;50.560;9.714;2022-07-05T06:29:03;4.10;;;2.20;;
10248;SDS011;5169;50.560;9.714;2022-07-05T06:31:29;5.00;;;1.77;;
10248;SDS011;5169;50.560;9.714;2022-07-05T06:33:54;6.43;;;1.67;;
10248;SDS011;5169;50.560;9.714;2022-07-05T06:36:20;2.55;;;1.70;;
10248;SDS011;5169;50.560;9.714;2022-07-05T06:38:46;2.97;;;1.80;;
10248;SDS011;5169;50.560;9.714;2022-07-05T06:41:13;3.20;;;1.50;;
10248;SDS011;5169;50.560;9.714;2022-07-05T06:43:41;4.82;;;1.45;;
10248;SDS011;5169;50.560;9.714;2022-07-05T06:46:07;3.25;;;1.58;;
10248;SDS011;5169;50.560;9.714;2022-07-05T06:48:32;3.92;;;1.33;;
10248;SDS011;5169;50.560;9.714;2022-07-05T06:50:58;2.05;;;1.50;;
10248;SDS011;5169;50.560;9.714;2022-07-05T06:53:27;3.13;;;1.60;;
10248;SDS011;5169;50.560;9.714;2022-07-05T06:55:52;3.83;;;1.60;;
10248;SDS011;5169;50.560;9.714;2022-07-05T06:58:21;4.40;;;1.67;;
10248;SDS011;5169;50.560;9.714;2022-07-05T07:00:47;5.37;;;1.57;;
10248;SDS011;5169;50.560;9.714;2022-07-05T07:03:12;4.30;;;1.60;;
10248;SDS011;5169;50.560;9.714;2022-07-05T07:05:38;4.37;;;1.70;;
10248;SDS011;5169;50.560;9.714;2022-07-05T07:08:04;3.50;;;1.67;;
10248;SDS011;5169;50.560;9.714;2022-07-05T07:10:48;2.63;;;1.73;;
10248;SDS011;5169;50.560;9.714;2022-07-05T07:13:18;3.13;;;1.43;;
10248;SDS011;5169;50.560;9.714;2022-07-05T07:15:44;4.20;;;1.70;;
10248;SDS011;5169;50.560;9.714;2022-07-05T07:18:13;4.20;;;1.47;;
10248;SDS011;5169;50.560;9.714;2022-07-05T07:20:39;4.63;;;1.40;;
10248;SDS011;5169;50.560;9.714;2022-07-05T07:23:05;4.67;;;1.60;;
10248;SDS011;5169;50.560;9.714;2022-07-05T07:25:30;5.13;;;1.60;;
10248;SDS011;5169;50.560;9.714;2022-07-05T07:27:56;3.23;;;1.27;;
10248;SDS011;5169;50.560;9.714;2022-07-05T07:30:26;2.87;;;1.33;;
10248;SDS011;5169;50.560;9.714;2022-07-05T07:32:53;2.73;;;1.10;;
10248;SDS011;5169;50.560;9.714;2022-07-05T07:35:19;3.70;;;1.50;;
10248;SDS011;5169;50.560;9.714;2022-07-05T07:37:45;5.60;;;1.90;;
10248;SDS011;5169;50.560;9.714;2022-07-05T07:40:11;3.77;;;1.30;;
10248;SDS011;5169;50.560;9.714;2022-07-05T07:42:37;5.00;;;1.60;;
10248;SDS011;5169;50.560;9.714;2022-07-05T07:45:03;3.33;;;1.30;;
10248;SDS011;5169;50.560;9.714;2022-07-05T07:47:30;4.43;;;1.40;;
10248;SDS011;5169;50.560;9.714;2022-07-05T07:49:56;6.10;;;1.30;;
10248;SDS011;5169;50.560;9.714;2022-07-05T07:52:22;3.80;;;1.50;;
10248;SDS011;5169;50.560;9.714;2022-07-05T07:54:48;3.37;;;1.50;;
10248;SDS011;5169;50.560;9.714;2022-07-05T07:57:14;2.97;;;1.43;;
10248;SDS011;5169;50.560;9.714;2022-07-05T07:59:40;4.07;;;1.57;;
10248;SDS011;5169;50.560;9.714;2022-07-05T08:02:08;1.63;;;1.20;;
10248;SDS011;5169;50.560;9.714;2022-07-05T08:04:35;3.97;;;1.60;;
10248;SDS011;5169;50.560;9.714;2022-07-05T08:07:01;2.13;;;1.40;;
10248;SDS011;5169;50.560;9.714;2022-07-05T08:09:28;4.20;;;1.60;;
10248;SDS011;5169;50.560;9.714;2022-07-05T08:11:57;2.97;;;1.50;;
10248;SDS011;5169;50.560;9.714;2022-07-05T08:14:22;6.77;;;1.57;;
10248;SDS011;5169;50.560;9.714;2022-07-05T08:16:48;2.00;;;1.30;;
10248;SDS011;5169;50.560;9.714;2022-07-05T08:19:17;3.20;;;1.40;;
10248;SDS011;5169;50.560;9.714;2022-07-05T08:22:04;2.10;;;1.20;;
10248;SDS011;5169;50.560;9.714;2022-07-05T08:24:33;3.47;;;1.60;;
10248;SDS011;5169;50.560;9.714;2022-07-05T08:27:03;2.97;;;1.30;;
10248;SDS011;5169;50.560;9.714;2022-07-05T08:29:29;2.27;;;1.20;;
10248;SDS011;5169;50.560;9.714;2022-07-05T08:31:54;5.27;;;1.40;;
10248;SDS011;5169;50.560;9.714;2022-07-05T08:34:20;3.33;;;1.50;;
10248;SDS011;5169;50.560;9.714;2022-07-05T08:36:46;3.70;;;1.33;;
10248;SDS011;5169;50.560;9.714;2022-07-05T08:39:13;3.20;;;1.30;;
10248;SDS011;5169;50.560;9.714;2022-07-05T08:41:40;5.67;;;1.30;;
10248;SDS011;5169;50.560;9.714;2022-07-05T08:44:12;3.83;;;1.23;;
10248;SDS011;5169;50.560;9.714;2022-07-05T08:46:43;2.43;;;1.30;;
10248;SDS011;5169;50.560;9.714;2022-07-05T08:49:11;2.70;;;1.10;;
10248;SDS011;5169;50.560;9.714;2022-07-05T08:51:41;3.83;;;1.10;;
10248;SDS011;5169;50.560;9.714;2022-07-05T08:54:08;3.47;;;1.30;;
10248;SDS011;5169;50.560;9.714;2022-07-05T08:56:37;3.37;;;1.20;;
10248;SDS011;5169;50.560;9.714;2022-07-05T08:59:06;5.53;;;1.30;;
10248;SDS011;5169;50.560;9.714;2022-07-05T09:01:34;2.70;;;1.20;;
10248;SDS011;5169;50.560;9.714;2022-07-05T09:04:04;4.47;;;1.27;;
10248;SDS011;5169;50.560;9.714;2022-07-05T09:06:32;2.13;;;1.47;;
10248;SDS011;5169;50.560;9.714;2022-07-05T09:09:03;3.30;;;1.40;;
10248;SDS011;5169;50.560;9.714;2022-07-05T09:11:38;2.13;;;1.20;;
10248;SDS011;5169;50.560;9.714;2022-07-05T09:14:06;3.00;;;1.13;;
10248;SDS011;5169;50.560;9.714;2022-07-05T09:16:42;1.48;;;1.10;;
10248;SDS011;5169;50.560;9.714;2022-07-05T09:19:08;2.33;;;1.37;;
10248;SDS011;5169;50.560;9.714;2022-07-05T09:21:34;2.03;;;1.37;;
10248;SDS011;5169;50.560;9.714;2022-07-05T09:24:02;3.20;;;1.20;;
10248;SDS011;5169;50.560;9.714;2022-07-05T09:29:02;3.47;;;1.20;;
10248;SDS011;5169;50.560;9.714;2022-07-05T09:31:36;2.10;;;1.20;;
10248;SDS011;5169;50.560;9.714;2022-07-05T09:34:07;2.38;;;1.20;;
10248;SDS011;5169;50.560;9.714;2022-07-05T09:36:55;2.17;;;1.35;;
10248;SDS011;5169;50.560;9.714;2022-07-05T09:44:56;3.03;;;1.40;;
10248;SDS011;5169;50.560;9.714;2022-07-05T09:47:29;4.90;;;1.50;;
10248;SDS011;5169;50.560;9.714;2022-07-05T09:49:59;7.85;;;1.75;;
10248;SDS011;5169;50.560;9.714;2022-07-05T09:52:29;3.97;;;1.30;;
10248;SDS011;5169;50.560;9.714;2022-07-05T09:57:37;2.95;;;1.40;;
10248;SDS011;5169;50.560;9.714;2022-07-05T10:00:16;3.40;;;1.10;;
10248;SDS011;5169;50.560;9.714;2022-07-05T10:02:50;1.58;;;1.20;;
10248;SDS011;5169;50.560;9.714;2022-07-05T10:07:45;2.45;;;1.20;;
10248;SDS011;5169;50.560;9.714;2022-07-05T10:10:17;2.15;;;1.23;;
10248;SDS011;5169;50.560;9.714;2022-07-05T10:12:45;3.15;;;1.40;;
10248;SDS011;5169;50.560;9.714;2022-07-05T10:15:14;4.63;;;1.30;;
10248;SDS011;5169;50.560;9.714;2022-07-05T10:17:45;4.63;;;1.23;;
10248;SDS011;5169;50.560;9.714;2022-07-05T10:20:18;1.80;;;1.30;;
10248;SDS011;5169;50.560;9.714;2022-07-05T10:22:55;3.15;;;1.40;;
10248;SDS011;5169;50.560;9.714;2022-07-05T10:25:22;3.75;;;1.40;;
10248;SDS011;5169;50.560;9.714;2022-07-05T10:27:49;2.47;;;1.20;;
10248;SDS011;5169;50.560;9.714;2022-07-05T10:30:20;4.43;;;1.30;;
10248;SDS011;5169;50.560;9.714;2022-07-05T10:32:47;3.67;;;1.50;;
10248;SDS011;5169;50.560;9.714;2022-07-05T10:35:13;3.67;;;1.50;;
10248;SDS011;5169;50.560;9.714;2022-07-05T10:37:44;1.77;;;1.10;;
10248;SDS011;5169;50.560;9.714;2022-07-05T10:40:10;3.05;;;1.40;;
10248;SDS011;5169;50.560;9.714;2022-07-05T10:42:40;4.72;;;1.30;;
10248;SDS011;5169;50.560;9.714;2022-07-05T11:06:05;3.05;;;1.05;;
10248;SDS011;5169;50.560;9.714;2022-07-05T11:16:46;3.33;;;1.30;;
10248;SDS011;5169;50.560;9.714;2022-07-05T11:19:14;3.00;;;1.30;;
10248;SDS011;5169;50.560;9.714;2022-07-05T11:24:31;2.38;;;1.20;;
10248;SDS011;5169;50.560;9.714;2022-07-05T11:26:58;2.88;;;1.30;;
10248;SDS011;5169;50.560;9.714;2022-07-05T11:32:19;2.72;;;1.13;;
10248;SDS011;5169;50.560;9.714;2022-07-05T11:35:15;1.85;;;1.10;;
10248;SDS011;5169;50.560;9.714;2022-07-05T11:37:57;2.55;;;1.20;;
10248;SDS011;5169;50.560;9.714;2022-07-05T11:42:52;3.58;;;1.35;;
10248;SDS011;5169;50.560;9.714;2022-07-05T11:45:21;1.83;;;1.15;;
10248;SDS011;5169;50.560;9.714;2022-07-05T11:47:46;2.90;;;1.10;;
10248;SDS011;5169;50.560;9.714;2022-07-05T11:50:24;1.95;;;1.10;;
10248;SDS011;5169;50.560;9.714;2022-07-05T11:53:02;1.92;;;1.08;;
10248;SDS011;5169;50.560;9.714;2022-07-05T11:55:28;3.90;;;1.20;;
10248;SDS011;5169;50.560;9.714;2022-07-05T11:57:55;5.80;;;1.50;;
10248;SDS011;5169;50.560;9.714;2022-07-05T12:00:26;3.25;;;1.30;;
10248;SDS011;5169;50.560;9.714;2022-07-05T12:03:20;1.17;;;1.08;;
10248;SDS011;5169;50.560;9.714;2022-07-05T12:05:48;2.97;;;1.10;;
10248;SDS011;5169;50.560;9.714;2022-07-05T12:08:23;3.50;;;1.10;;
10248;SDS011;5169;50.560;9.714;2022-07-05T12:10:50;5.00;;;1.20;;
10248;SDS011;5169;50.560;9.714;2022-07-05T12:13:42;3.60;;;1.23;;
10248;SDS011;5169;50.560;9.714;2022-07-05T12:16:12;1.70;;;1.25;;
10248;SDS011;5169;50.560;9.714;2022-07-05T12:18:54;2.42;;;1.10;;
10248;SDS011;5169;50.560;9.714;2022-07-05T12:21:26;2.40;;;1.23;;
10248;SDS011;5169;50.560;9.714;2022-07-05T12:23:52;3.28;;;1.23;;
10248;SDS011;5169;50.560;9.714;2022-07-05T12:26:19;1.67;;;1.20;;
10248;SDS011;5169;50.560;9.714;2022-07-05T12:28:46;2.60;;;1.30;;
10248;SDS011;5169;50.560;9.714;2022-07-05T12:31:22;2.38;;;1.20;;
10248;SDS011;5169;50.560;9.714;2022-07-05T12:33:50;2.13;;;1.20;;
10248;SDS011;5169;50.560;9.714;2022-07-05T12:36:18;3.53;;;1.20;;
10248;SDS011;5169;50.560;9.714;2022-07-05T12:38:48;1.98;;;1.27;;
10248;SDS011;5169;50.560;9.714;2022-07-05T12:41:21;3.13;;;1.30;;
10248;SDS011;5169;50.560;9.714;2022-07-05T12:43:52;2.55;;;1.10;;
10248;SDS011;5169;50.560;9.714;2022-07-05T12:46:39;2.58;;;1.30;;
10248;SDS011;5169;50.560;9.714;2022-07-05T12:49:05;2.42;;;1.10;;
10248;SDS011;5169;50.560;9.714;2022-07-05T12:51:32;1.63;;;1.02;;
10248;SDS011;5169;50.560;9.714;2022-07-05T12:53:59;3.00;;;1.20;;
10248;SDS011;5169;50.560;9.714;2022-07-05T12:56:51;2.53;;;1.05;;
10248;SDS011;5169;50.560;9.714;2022-07-05T12:59:36;3.78;;;1.15;;
10248;SDS011;5169;50.560;9.714;2022-07-05T13:02:02;1.70;;;1.08;;
10248;SDS011;5169;50.560;9.714;2022-07-05T13:04:28;1.65;;;1.08;;
10248;SDS011;5169;50.560;9.714;2022-07-05T13:06:57;2.58;;;1.20;;
10248;SDS011;5169;50.560;9.714;2022-07-05T13:14:44;4.32;;;1.23;;
10248;SDS011;5169;50.560;9.714;2022-07-05T13:17:18;3.00;;;1.40;;
10248;SDS011;5169;50.560;9.714;2022-07-05T13:19:46;2.03;;;1.13;;
10248;SDS011;5169;50.560;9.714;2022-07-05T13:22:15;1.40;;;1.23;;
10248;SDS011;5169;50.560;9.714;2022-07-05T13:24:45;2.58;;;1.38;;
10248;SDS011;5169;50.560;9.714;2022-07-05T13:27:12;2.05;;;1.00;;
10248;SDS011;5169;50.560;9.714;2022-07-05T13:29:39;1.58;;;1.00;;
10248;SDS011;5169;50.560;9.714;2022-07-05T13:32:08;2.97;;;1.20;;
10248;SDS011;5169;50.560;9.714;2022-07-05T13:34:33;1.15;;;1.05;;
10248;SDS011;5169;50.560;9.714;2022-07-05T13:37:01;2.17;;;1.40;;
10248;SDS011;5169;50.560;9.714;2022-07-05T13:39:29;4.20;;;1.45;;
10248;SDS011;5169;50.560;9.714;2022-07-05T13:41:55;2.15;;;1.35;;
10248;SDS011;5169;50.560;9.714;2022-07-05T13:44:22;3.80;;;1.50;;
10248;SDS011;5169;50.560;9.714;2022-07-05T13:46:48;4.55;;;1.40;;
10248;SDS011;5169;50.560;9.714;2022-07-05T13:49:13;1.90;;;1.00;;
10248;SDS011;5169;50.560;9.714;2022-07-05T13:51:39;2.22;;;1.40;;
10248;SDS011;5169;50.560;9.714;2022-07-05T13:54:05;3.67;;;1.45;;
10248;SDS011;5169;50.560;9.714;2022-07-05T13:56:34;3.45;;;1.40;;
10248;SDS011;5169;50.560;9.714;2022-07-05T13:59:02;3.47;;;1.30;;
10248;SDS011;5169;50.560;9.714;2022-07-05T14:01:28;1.48;;;1.30;;
10248;SDS011;5169;50.560;9.714;2022-07-05T14:03:57;1.58;;;1.30;;
10248;SDS011;5169;50.560;9.714;2022-07-05T14:06:27;1.58;;;1.10;;
10248;SDS011;5169;50.560;9.714;2022-07-05T14:08:56;2.63;;;1.30;;
10248;SDS011;5169;50.560;9.714;2022-07-05T14:11:25;2.65;;;1.38;;
10248;SDS011;5169;50.560;9.714;2022-07-05T14:13:52;2.47;;;1.35;;
10248;SDS011;5169;50.560;9.714;2022-07-05T14:16:18;3.17;;;1.20;;
10248;SDS011;5169;50.560;9.714;2022-07-05T14:18:44;1.65;;;1.10;;
10248;SDS011;5169;50.560;9.714;2022-07-05T14:21:09;2.03;;;1.40;;
10248;SDS011;5169;50.560;9.714;2022-07-05T14:23:40;2.72;;;1.33;;
10248;SDS011;5169;50.560;9.714;2022-07-05T14:26:09;5.80;;;1.50;;
10248;SDS011;5169;50.560;9.714;2022-07-05T14:28:37;2.83;;;1.50;;
10248;SDS011;5169;50.560;9.714;2022-07-05T14:31:03;1.95;;;1.55;;
10248;SDS011;5169;50.560;9.714;2022-07-05T14:33:29;3.42;;;1.50;;
10248;SDS011;5169;50.560;9.714;2022-07-05T14:35:54;6.75;;;1.40;;
10248;SDS011;5169;50.560;9.714;2022-07-05T14:38:20;4.57;;;1.27;;
10248;SDS011;5169;50.560;9.714;2022-07-05T14:40:46;1.95;;;1.40;;
10248;SDS011;5169;50.560;9.714;2022-07-05T14:43:13;6.03;;;1.38;;
10248;SDS011;5169;50.560;9.714;2022-07-05T14:45:41;2.80;;;1.60;;
10248;SDS011;5169;50.560;9.714;2022-07-05T14:48:07;2.28;;;1.52;;
10248;SDS011;5169;50.560;9.714;2022-07-05T14:50:32;5.35;;;1.38;;
10248;SDS011;5169;50.560;9.714;2022-07-05T14:53:00;3.13;;;1.50;;
10248;SDS011;5169;50.560;9.714;2022-07-05T14:55:32;2.17;;;1.40;;
10248;SDS011;5169;50.560;9.714;2022-07-05T14:57:59;2.13;;;1.42;;
10248;SDS011;5169;50.560;9.714;2022-07-05T15:00:24;4.50;;;1.65;;
10248;SDS011;5169;50.560;9.714;2022-07-05T15:02:50;2.65;;;1.33;;
10248;SDS011;5169;50.560;9.714;2022-07-05T15:05:18;4.55;;;1.42;;
10248;SDS011;5169;50.560;9.714;2022-07-05T15:07:46;4.43;;;2.00;;
10248;SDS011;5169;50.560;9.714;2022-07-05T15:10:12;5.13;;;1.60;;
10248;SDS011;5169;50.560;9.714;2022-07-05T15:12:37;3.13;;;1.63;;
10248;SDS011;5169;50.560;9.714;2022-07-05T15:15:03;3.03;;;1.40;;
10248;SDS011;5169;50.560;9.714;2022-07-05T15:17:29;4.03;;;1.58;;
10248;SDS011;5169;50.560;9.714;2022-07-05T15:19:58;3.38;;;1.50;;
10248;SDS011;5169;50.560;9.714;2022-07-05T15:22:23;3.38;;;1.30;;
10248;SDS011;5169;50.560;9.714;2022-07-05T15:24:51;3.28;;;1.60;;
10248;SDS011;5169;50.560;9.714;2022-07-05T15:27:18;3.08;;;1.75;;
10248;SDS011;5169;50.560;9.714;2022-07-05T15:29:44;4.25;;;1.45;;
10248;SDS011;5169;50.560;9.714;2022-07-05T15:32:10;2.78;;;1.50;;
10248;SDS011;5169;50.560;9.714;2022-07-05T15:34:38;4.32;;;1.90;;
10248;SDS011;5169;50.560;9.714;2022-07-05T15:37:04;4.88;;;1.50;;
10248;SDS011;5169;50.560;9.714;2022-07-05T15:39:32;1.65;;;1.40;;
10248;SDS011;5169;50.560;9.714;2022-07-05T15:41:59;3.40;;;1.40;;
10248;SDS011;5169;50.560;9.714;2022-07-05T15:44:26;3.50;;;1.50;;
10248;SDS011;5169;50.560;9.714;2022-07-05T15:46:54;2.55;;;1.42;;
10248;SDS011;5169;50.560;9.714;2022-07-05T15:49:28;4.60;;;1.60;;
10248;SDS011;5169;50.560;9.714;2022-07-05T15:51:55;3.35;;;1.50;;
10248;SDS011;5169;50.560;9.714;2022-07-05T15:54:22;4.13;;;1.95;;
10248;SDS011;5169;50.560;9.714;2022-07-05T15:56:47;3.10;;;1.60;;
10248;SDS011;5169;50.560;9.714;2022-07-05T15:59:13;3.15;;;1.70;;
10248;SDS011;5169;50.560;9.714;2022-07-05T16:01:39;3.42;;;1.70;;